Time;durP1;ratioP1;P1;durP2;ratioP2;P2;SDS_P1;SDS_P2;PMS_P1;PMS_P2;Temp;Humidity;BMP_temperature;BMP_pressure;BME280_temperature;BME280_humidity;BME280_pressure;Samples;Min_cycle;Max_cycle;Signal;HPM_P1;HPM_P2
2021/12/05 04:03:21;;;;;;;10.60;3.35;;;4.30;88.00;;;;;;5091605;27;20385;-38
2021/12/05 04:05:48;;;;;;;13.60;3.97;;;4.30;87.60;;;;;;5089452;28;20134;-38
2021/12/05 04:08:16;;;;;;;6.00;1.60;;;4.40;87.30;;;;;;5090528;28;20020;-38
2021/12/05 04:10:45;;;;;;;8.38;2.40;;;4.50;86.40;;;;;;5090453;28;20052;-38
2021/12/05 04:13:12;;;;;;;8.40;2.47;;;4.60;86.50;;;;;;5090436;28;20085;-38
2021/12/05 04:15:38;;;;;;;9.43;2.50;;;4.50;86.40;;;;;;5090324;28;20503;-38
2021/12/05 04:18:04;;;;;;;13.45;2.75;;;4.60;86.30;;;;;;5090248;28;20025;-38
2021/12/05 04:20:30;;;;;;;11.90;2.83;;;4.60;86.40;;;;;;5090526;28;20040;-39
2021/12/05 04:22:57;;;;;;;8.48;3.35;;;4.60;86.10;;;;;;5090118;28;20047;-39
2021/12/05 04:25:24;;;;;;;11.98;3.22;;;4.50;86.20;;;;;;5088938;28;20532;-38
2021/12/05 04:27:51;;;;;;;8.32;2.45;;;4.60;86.20;;;;;;5090351;28;20093;-38
2021/12/05 04:30:21;;;;;;;5.72;1.90;;;4.70;85.80;;;;;;5090133;28;20032;-38
2021/12/05 04:32:47;;;;;;;13.20;2.20;;;4.60;86.20;;;;;;5090532;28;20115;-38
2021/12/05 04:35:13;;;;;;;22.05;2.05;;;4.60;85.90;;;;;;5090020;28;20028;-39
2021/12/05 04:37:39;;;;;;;11.30;4.82;;;4.60;86.00;;;;;;5090279;28;20143;-38
2021/12/05 04:40:06;;;;;;;10.05;2.33;;;4.60;86.30;;;;;;5090519;28;20074;-39
2021/12/05 04:42:32;;;;;;;11.43;1.85;;;4.60;85.90;;;;;;5089786;28;20038;-46
2021/12/05 04:45:00;;;;;;;11.55;2.20;;;4.60;86.00;;;;;;5090268;28;20099;-38
2021/12/05 04:47:26;;;;;;;9.20;2.53;;;4.60;86.00;;;;;;5089901;28;20104;-39
2021/12/05 04:49:52;;;;;;;6.97;2.22;;;4.60;85.90;;;;;;5089786;28;20104;-39
2021/12/05 04:52:17;;;;;;;7.03;1.70;;;4.60;85.80;;;;;;5089816;28;20073;-39
2021/12/05 04:54:43;;;;;;;33.38;3.58;;;4.60;85.80;;;;;;5089924;28;20025;-38
2021/12/05 04:57:09;;;;;;;9.30;2.22;;;4.60;85.90;;;;;;5089586;28;20033;-38
2021/12/05 04:59:37;;;;;;;9.50;2.08;;;4.60;85.70;;;;;;5089660;28;20024;-38
2021/12/05 05:02:06;;;;;;;12.40;3.00;;;4.50;85.90;;;;;;5089574;28;20101;-38
2021/12/05 05:04:39;;;;;;;13.48;3.70;;;4.50;85.90;;;;;;5089546;28;20473;-39
2021/12/05 05:07:14;;;;;;;12.45;2.03;;;4.50;86.00;;;;;;5089477;28;20037;-39
2021/12/05 05:09:40;;;;;;;7.60;2.10;;;4.40;86.30;;;;;;5089829;28;20033;-39
2021/12/05 05:12:06;;;;;;;7.38;1.98;;;4.40;86.30;;;;;;5089366;28;20384;-39
2021/12/05 05:14:32;;;;;;;14.32;2.60;;;4.40;86.20;;;;;;5076510;28;20377;-38
2021/12/05 05:16:58;;;;;;;11.45;2.35;;;4.40;86.20;;;;;;5075908;28;20111;-39
2021/12/05 05:19:32;;;;;;;12.23;1.83;;;4.40;86.20;;;;;;5074469;28;20117;-39
2021/12/05 05:25:16;;;;;;;12.45;3.78;;;4.40;86.10;;;;;;5075820;28;20021;-38
2021/12/05 05:27:55;;;;;;;9.32;2.25;;;4.30;86.00;;;;;;5075370;28;20029;-39
2021/12/05 05:41:58;;;;;;;9.65;2.00;;;4.30;86.20;;;;;;5075802;28;20038;-39
2021/12/05 05:47:13;;;;;;;15.60;2.30;;;4.30;85.80;;;;;;5075610;28;20561;-38
2021/12/05 05:52:11;;;;;;;10.80;2.45;;;4.40;85.60;;;;;;5075297;28;20498;-38
2021/12/05 05:54:36;;;;;;;7.20;2.90;;;4.50;85.10;;;;;;5075330;28;20028;-38
2021/12/05 05:57:16;;;;;;;7.50;2.53;;;4.50;85.00;;;;;;5075092;28;20469;-40
2021/12/05 05:59:50;;;;;;;12.43;2.88;;;4.50;85.10;;;;;;5075259;28;20033;-39
2021/12/05 06:04:41;;;;;;;10.20;2.40;;;4.50;85.00;;;;;;5075232;28;20051;-38
2021/12/05 06:07:08;;;;;;;11.40;2.17;;;4.60;85.00;;;;;;5075102;28;20028;-38
2021/12/05 06:09:34;;;;;;;8.77;2.65;;;4.60;84.70;;;;;;5074791;28;20020;-38
2021/12/05 06:12:00;;;;;;;8.77;1.80;;;4.60;84.50;;;;;;5074938;28;20081;-38
2021/12/05 06:14:27;;;;;;;11.68;2.45;;;4.50;84.70;;;;;;5074963;28;20020;-38
2021/12/05 06:16:53;;;;;;;10.60;2.35;;;4.60;84.30;;;;;;5074769;28;20582;-38
2021/12/05 06:19:19;;;;;;;6.68;2.38;;;4.60;84.10;;;;;;5074525;28;20036;-38
2021/12/05 06:21:45;;;;;;;10.93;2.83;;;4.50;84.40;;;;;;5074607;28;20033;-38
2021/12/05 06:24:10;;;;;;;11.10;2.78;;;4.60;84.10;;;;;;5074016;28;20028;-38
2021/12/05 06:26:36;;;;;;;12.48;2.78;;;4.70;84.20;;;;;;5074006;28;20033;-38
2021/12/05 06:29:14;;;;;;;16.80;3.95;;;4.60;84.00;;;;;;5074356;28;20023;-38
2021/12/05 06:47:23;;;;;;;11.38;2.58;;;4.80;82.90;;;;;;5074913;28;20396;-38
2021/12/05 06:49:50;;;;;;;17.58;3.88;;;4.70;83.20;;;;;;5072797;28;20031;-42
2021/12/05 06:52:16;;;;;;;8.35;2.95;;;4.80;82.60;;;;;;5072502;28;20028;-38
2021/12/05 06:54:42;;;;;;;10.10;2.55;;;4.80;82.80;;;;;;5074065;28;20460;-39
2021/12/05 06:57:08;;;;;;;14.98;2.55;;;4.80;82.70;;;;;;5074019;28;20033;-39
2021/12/05 06:59:37;;;;;;;8.27;2.50;;;4.80;82.40;;;;;;5072304;28;20025;-42
2021/12/05 07:02:04;;;;;;;7.10;2.67;;;4.80;82.50;;;;;;5073517;28;20044;-40
2021/12/05 07:06:55;;;;;;;7.25;2.42;;;4.70;82.70;;;;;;5074146;28;20021;-39
2021/12/05 07:09:22;;;;;;;5.53;2.63;;;4.80;82.20;;;;;;5077400;28;20017;-38
2021/12/05 07:17:07;;;;;;;8.77;1.88;;;4.70;82.30;;;;;;5072899;28;20035;-38
2021/12/05 07:22:21;;;;;;;15.68;3.38;;;4.80;82.80;;;;;;5073569;28;20031;-39
2021/12/05 07:24:52;;;;;;;9.77;2.20;;;4.70;82.80;;;;;;5073616;28;20024;-40
2021/12/05 07:41:30;;;;;;;7.63;3.13;;;4.90;82.20;;;;;;5073341;28;20032;-39
2021/12/05 07:43:56;;;;;;;8.40;2.00;;;4.80;82.00;;;;;;5073170;28;20012;-40
2021/12/05 07:46:22;;;;;;;6.20;1.58;;;4.80;82.40;;;;;;5073162;28;20066;-39
2021/12/05 07:48:48;;;;;;;15.00;4.03;;;4.80;82.40;;;;;;5073064;28;20031;-39
2021/12/05 07:56:38;;;;;;;1.98;1.40;;;4.90;82.00;;;;;;5073764;28;20031;-39
2021/12/05 07:59:16;;;;;;;4.45;1.55;;;5.00;82.10;;;;;;5073312;28;20032;-39
2021/12/05 14:03:06;;;;;;;2.35;1.55;;;6.80;76.60;;;;;;5091713;27;20159;-53
2021/12/05 14:05:31;;;;;;;3.72;1.98;;;6.80;75.70;;;;;;5091036;28;20031;-53
2021/12/05 14:07:58;;;;;;;1.63;1.48;;;6.80;75.60;;;;;;5090744;28;20020;-49
2021/12/05 14:10:24;;;;;;;3.40;2.28;;;7.00;75.20;;;;;;5090119;28;20031;-50
2021/12/05 14:12:50;;;;;;;4.43;2.92;;;7.10;74.60;;;;;;5090886;28;20024;-51
2021/12/05 14:15:16;;;;;;;4.03;1.60;;;6.80;75.60;;;;;;5090723;28;20024;-60
2021/12/05 14:17:44;;;;;;;5.35;2.70;;;6.90;76.00;;;;;;5090431;28;20087;-55
2021/12/05 14:20:15;;;;;;;8.15;4.40;;;7.00;74.80;;;;;;5089435;28;20035;-54
2021/12/05 14:22:43;;;;;;;7.55;2.75;;;6.80;75.50;;;;;;5090683;28;20028;-53
2021/12/05 14:25:15;;;;;;;3.50;2.00;;;6.70;75.80;;;;;;5090604;28;20063;-49
2021/12/05 14:27:49;;;;;;;4.95;2.40;;;6.70;75.70;;;;;;5090598;28;20081;-54
2021/12/05 14:30:19;;;;;;;2.95;1.98;;;6.60;75.70;;;;;;5089315;28;20031;-52
2021/12/05 14:32:46;;;;;;;5.55;1.65;;;6.60;75.90;;;;;;5090202;28;20047;-53
2021/12/05 14:35:17;;;;;;;4.13;1.63;;;6.80;75.00;;;;;;5090272;28;20391;-55
2021/12/05 14:37:45;;;;;;;3.00;1.70;;;6.40;76.10;;;;;;5089025;28;20427;-54
2021/12/05 14:40:30;;;;;;;6.70;1.65;;;6.40;76.70;;;;;;5089386;28;20029;-51
2021/12/05 14:42:59;;;;;;;3.85;1.80;;;6.50;76.00;;;;;;5090641;28;20468;-51
2021/12/05 14:45:28;;;;;;;1.77;1.30;;;6.30;76.80;;;;;;5089859;28;20024;-52
2021/12/05 14:47:56;;;;;;;5.40;1.25;;;6.30;77.40;;;;;;5090391;28;20169;-55
2021/12/05 14:50:30;;;;;;;5.47;1.88;;;6.30;77.80;;;;;;5090398;28;20016;-54
2021/12/05 14:53:00;;;;;;;5.13;2.20;;;6.20;77.60;;;;;;5090280;28;20108;-56
2021/12/05 14:55:27;;;;;;;3.53;1.90;;;6.30;77.30;;;;;;5090107;28;20500;-54
2021/12/05 14:57:57;;;;;;;7.20;2.75;;;6.30;77.00;;;;;;5088792;28;20043;-49
2021/12/05 15:00:31;;;;;;;3.90;2.42;;;6.20;77.50;;;;;;5090521;28;20494;-54
2021/12/05 15:03:17;;;;;;;8.63;4.13;;;6.30;77.00;;;;;;5109490;28;20539;-53
2021/12/05 15:05:46;;;;;;;5.50;2.60;;;6.30;77.50;;;;;;5110787;28;20404;-54
2021/12/05 15:08:14;;;;;;;4.10;1.98;;;6.30;77.10;;;;;;5110493;28;20062;-49
2021/12/05 15:10:42;;;;;;;5.90;2.75;;;6.30;76.60;;;;;;5110351;28;20019;-54
2021/12/05 15:13:09;;;;;;;4.55;2.53;;;6.40;76.90;;;;;;5104220;28;20021;-49
2021/12/05 15:15:35;;;;;;;3.40;2.25;;;6.40;76.30;;;;;;5096302;28;20034;-51
2021/12/05 15:18:02;;;;;;;3.97;1.77;;;6.50;76.30;;;;;;5096149;28;20464;-51
2021/12/05 15:20:32;;;;;;;3.45;1.90;;;6.40;76.80;;;;;;5096442;28;20032;-51
2021/12/05 15:23:08;;;;;;;2.97;1.70;;;6.40;77.40;;;;;;5096605;28;20476;-50
2021/12/05 15:25:35;;;;;;;2.92;1.83;;;6.40;77.30;;;;;;5096477;28;20016;-53
2021/12/05 15:28:02;;;;;;;2.35;1.80;;;6.30;77.40;;;;;;5094812;28;20103;-52
2021/12/05 15:30:43;;;;;;;4.28;2.60;;;6.30;77.90;;;;;;5095720;28;20028;-51
2021/12/05 15:33:13;;;;;;;6.95;2.67;;;6.40;77.30;;;;;;5096341;28;20020;-51
2021/12/05 15:35:39;;;;;;;2.85;1.27;;;6.30;77.90;;;;;;5094258;28;20024;-53
2021/12/05 15:38:10;;;;;;;8.07;2.00;;;6.30;78.80;;;;;;5095472;28;20392;-52
2021/12/05 15:40:40;;;;;;;8.65;3.50;;;6.60;78.00;;;;;;5095886;28;20024;-53
2021/12/05 15:43:11;;;;;;;7.15;3.10;;;6.60;77.90;;;;;;5095458;28;20384;-53
2021/12/05 15:45:38;;;;;;;10.20;4.03;;;6.40;79.20;;;;;;5095331;28;20039;-52
2021/12/05 15:48:04;;;;;;;5.30;4.07;;;6.30;81.30;;;;;;5095284;28;20031;-48
2021/12/05 15:50:39;;;;;;;13.07;4.93;;;6.00;83.30;;;;;;5095512;28;20027;-54
2021/12/05 15:53:08;;;;;;;9.50;6.53;;;5.90;84.90;;;;;;5095499;28;20024;-50
2021/12/05 15:55:43;;;;;;;9.32;4.80;;;5.80;85.60;;;;;;5095464;28;20020;-52
2021/12/05 15:58:23;;;;;;;12.20;5.70;;;5.80;86.20;;;;;;5095474;28;20035;-53
2021/12/05 16:00:58;;;;;;;6.63;4.88;;;5.70;86.50;;;;;;5093691;28;20028;-52
2021/12/05 16:03:27;;;;;;;8.48;4.90;;;5.60;86.80;;;;;;5095063;28;20024;-50
2021/12/05 16:05:59;;;;;;;9.15;5.38;;;5.60;86.90;;;;;;5095097;28;20031;-53
2021/12/05 16:08:30;;;;;;;11.95;5.60;;;5.50;87.60;;;;;;5095602;28;20020;-53
2021/12/05 16:11:00;;;;;;;10.43;5.78;;;5.50;87.90;;;;;;5095505;28;20103;-54
2021/12/05 16:13:29;;;;;;;10.47;5.47;;;5.50;88.00;;;;;;5095872;28;20025;-51
2021/12/05 16:16:05;;;;;;;12.98;7.47;;;5.30;88.10;;;;;;5095485;28;20032;-55
2021/12/05 16:18:34;;;;;;;12.07;6.10;;;5.30;88.60;;;;;;5095086;28;20020;-53
2021/12/05 16:21:05;;;;;;;17.52;7.50;;;5.20;89.10;;;;;;5094984;28;20027;-53
2021/12/05 16:23:38;;;;;;;16.40;7.95;;;5.10;89.30;;;;;;5095541;28;20099;-52
2021/12/05 16:26:09;;;;;;;12.50;7.93;;;5.10;89.80;;;;;;5092778;28;20540;-52
2021/12/05 16:28:47;;;;;;;11.82;7.10;;;5.00;89.70;;;;;;5094244;28;20020;-53
2021/12/05 16:31:24;;;;;;;10.77;6.70;;;5.00;89.80;;;;;;5094991;28;20380;-49
2021/12/05 16:33:54;;;;;;;10.90;6.47;;;5.00;89.60;;;;;;5095431;28;20468;-51
2021/12/05 16:36:21;;;;;;;7.95;5.20;;;5.00;89.60;;;;;;5094762;28;20028;-51
2021/12/05 16:38:50;;;;;;;10.32;6.85;;;5.00;89.60;;;;;;5094989;28;20110;-49
2021/12/05 16:41:27;;;;;;;8.77;4.63;;;5.10;89.30;;;;;;5095260;28;20047;-51
2021/12/05 16:43:58;;;;;;;10.90;6.00;;;5.00;89.30;;;;;;5094504;28;20111;-51
2021/12/05 16:46:36;;;;;;;7.97;5.95;;;5.00;89.50;;;;;;5093280;28;20111;-51
2021/12/05 16:49:06;;;;;;;12.23;6.63;;;5.00;89.80;;;;;;5094799;28;20434;-48
2021/12/05 16:51:36;;;;;;;13.20;7.33;;;5.00;90.10;;;;;;5095023;28;20044;-48
2021/12/05 16:54:18;;;;;;;14.95;8.65;;;4.90;90.20;;;;;;5095068;28;20024;-50
2021/12/05 16:57:00;;;;;;;17.77;8.40;;;4.90;90.50;;;;;;5094802;28;20040;-49
2021/12/05 16:59:41;;;;;;;11.63;7.10;;;4.80;90.70;;;;;;5093852;28;20024;-52
2021/12/05 17:02:22;;;;;;;;;;;4.80;90.80;;;;;;5095168;28;20052;-50
2021/12/05 17:04:50;;;;;;;;;;;4.80;91.00;;;;;;5095749;28;20271;-51
2021/12/05 17:07:49;;;;;;;15.13;8.40;;;4.80;90.90;;;;;;5093584;28;19908;-52
2021/12/05 17:10:21;;;;;;;10.82;7.60;;;4.70;91.30;;;;;;5094659;28;20122;-51
2021/12/05 17:12:51;;;;;;;15.02;9.38;;;4.80;91.60;;;;;;5094509;28;20110;-49
2021/12/05 17:15:22;;;;;;;;;;;4.80;91.30;;;;;;5094893;28;20031;-49
2021/12/05 17:17:50;;;;;;;14.45;9.07;;;4.80;91.30;;;;;;5094584;28;20379;-49
2021/12/05 17:20:35;;;;;;;15.75;6.85;;;4.80;91.10;;;;;;5092956;28;20038;-49
2021/12/05 17:23:17;;;;;;;10.15;7.90;;;4.80;91.10;;;;;;5094388;28;20020;-53
2021/12/05 17:25:46;;;;;;;17.80;9.20;;;4.80;91.30;;;;;;5093928;28;20056;-49
2021/12/05 17:28:32;;;;;;;15.95;9.75;;;4.80;91.10;;;;;;5097631;28;20032;-40
2021/12/05 17:31:01;;;;;;;17.90;9.10;;;4.80;91.00;;;;;;5094135;28;20114;-38
2021/12/05 17:33:33;;;;;;;16.13;10.48;;;4.70;91.30;;;;;;5094111;28;20024;-40
2021/12/05 17:36:14;;;;;;;16.52;8.60;;;4.90;91.50;;;;;;5093752;28;20016;-40
2021/12/05 17:38:40;;;;;;;17.70;9.45;;;5.00;91.00;;;;;;5094254;28;20416;-39
2021/12/05 17:41:05;;;;;;;16.80;9.30;;;5.00;90.70;;;;;;5093639;28;20024;-39
2021/12/05 17:43:31;;;;;;;16.88;8.98;;;4.90;90.50;;;;;;5093357;28;20021;-40
2021/12/05 17:45:57;;;;;;;16.63;9.82;;;4.90;90.90;;;;;;5094145;28;20035;-40
2021/12/05 17:48:23;;;;;;;22.17;13.00;;;5.10;90.50;;;;;;5093820;28;20123;-38
2021/12/05 17:50:53;;;;;;;19.35;12.82;;;5.10;90.60;;;;;;5092257;28;20073;-40
2021/12/05 17:53:20;;;;;;;19.52;12.60;;;5.00;90.50;;;;;;5093594;28;20028;-39
2021/12/05 17:55:47;;;;;;;25.65;16.05;;;5.00;90.80;;;;;;5093729;28;20024;-39
2021/12/05 17:58:37;;;;;;;21.55;11.73;;;5.00;90.90;;;;;;5094620;28;20487;-39
2021/12/05 18:03:51;;;;;;;25.10;14.90;;;4.90;90.90;;;;;;5093854;28;20027;-39
2021/12/05 18:06:17;;;;;;;25.77;14.88;;;4.90;90.80;;;;;;5093569;28;20036;-40
2021/12/05 18:08:43;;;;;;;28.50;15.88;;;4.90;91.00;;;;;;5093505;28;20017;-41
2021/12/05 18:11:12;;;;;;;25.00;15.82;;;4.90;91.20;;;;;;5093650;28;20033;-41
2021/12/05 18:13:40;;;;;;;20.98;13.60;;;4.90;91.20;;;;;;5093818;28;20054;-40
2021/12/05 18:16:13;;;;;;;26.50;15.20;;;4.90;91.10;;;;;;5093188;28;20021;-39
2021/12/05 18:18:40;;;;;;;24.00;13.88;;;4.90;91.00;;;;;;5093064;28;20068;-40
2021/12/05 18:21:08;;;;;;;20.42;13.05;;;5.00;90.90;;;;;;5093293;28;20051;-40
2021/12/05 18:23:35;;;;;;;30.73;14.63;;;4.90;90.70;;;;;;5093263;28;20020;-39
2021/12/05 18:26:02;;;;;;;22.30;14.63;;;5.00;90.70;;;;;;5093309;28;20023;-39
2021/12/05 18:28:29;;;;;;;22.73;14.55;;;5.10;90.60;;;;;;5093194;28;20024;-39
2021/12/05 18:30:55;;;;;;;26.27;15.40;;;5.10;90.40;;;;;;5091914;28;20024;-39
2021/12/05 18:33:24;;;;;;;25.08;15.73;;;5.10;90.40;;;;;;5093027;28;20016;-40
2021/12/05 18:35:49;;;;;;;24.92;17.35;;;4.90;90.40;;;;;;5093510;28;20468;-39
2021/12/05 18:38:17;;;;;;;29.00;17.23;;;4.90;91.10;;;;;;5093013;28;20075;-38
2021/12/05 18:40:46;;;;;;;27.17;17.20;;;5.00;91.30;;;;;;5093065;28;20111;-39
2021/12/05 18:43:16;;;;;;;30.05;17.20;;;5.00;91.20;;;;;;5091653;28;20074;-39
2021/12/05 18:45:43;;;;;;;24.48;15.02;;;4.90;90.70;;;;;;5092992;28;20051;-39
2021/12/05 18:48:10;;;;;;;26.80;14.15;;;4.90;91.60;;;;;;5093777;28;20533;-39
2021/12/05 18:50:36;;;;;;;20.42;14.23;;;4.90;91.10;;;;;;5096855;28;20098;-39
2021/12/05 18:53:04;;;;;;;24.10;12.93;;;4.80;91.00;;;;;;5096181;28;20085;-39
2021/12/05 18:55:32;;;;;;;17.38;11.93;;;4.80;91.60;;;;;;5096519;28;20028;-39
2021/12/05 18:58:02;;;;;;;24.45;12.82;;;4.60;91.80;;;;;;5096004;28;20024;-40
2021/12/05 19:00:39;;;;;;;21.40;13.85;;;4.80;92.10;;;;;;5095109;28;20028;-40
2021/12/05 19:05:54;;;;;;;22.80;13.43;;;4.80;91.20;;;;;;5096697;28;20458;-40
2021/12/05 19:13:38;;;;;;;24.85;14.93;;;4.90;90.90;;;;;;5096570;28;20077;-39
2021/12/05 19:16:05;;;;;;;26.48;16.08;;;4.80;90.80;;;;;;5096381;28;20035;-40
2021/12/05 19:18:32;;;;;;;20.70;14.52;;;4.80;90.90;;;;;;5095825;28;20483;-41
2021/12/05 19:20:58;;;;;;;21.05;14.82;;;4.80;91.00;;;;;;5095885;28;20020;-40
2021/12/05 19:23:24;;;;;;;26.73;14.73;;;4.80;90.80;;;;;;5095755;28;20023;-39
2021/12/05 19:25:49;;;;;;;19.38;13.70;;;4.80;90.60;;;;;;5095507;28;20050;-40
2021/12/05 19:28:16;;;;;;;23.33;16.52;;;4.80;90.70;;;;;;5094485;28;20046;-39
2021/12/05 19:30:46;;;;;;;29.05;16.30;;;4.80;90.90;;;;;;5095803;28;20031;-39
2021/12/05 19:33:15;;;;;;;28.38;16.30;;;4.80;91.10;;;;;;5094418;28;20020;-39
2021/12/05 19:35:41;;;;;;;25.50;14.93;;;4.80;91.10;;;;;;5095553;28;20392;-39
2021/12/05 19:38:08;;;;;;;28.13;14.77;;;5.00;90.80;;;;;;5095554;28;20032;-40
2021/12/05 19:40:34;;;;;;;27.52;14.85;;;5.00;90.60;;;;;;5095587;28;20028;-40
2021/12/05 19:43:01;;;;;;;22.95;13.73;;;5.10;90.30;;;;;;5095319;28;20395;-40
2021/12/05 19:45:29;;;;;;;21.63;13.80;;;5.10;90.20;;;;;;5095425;28;20028;-40
2021/12/05 19:47:56;;;;;;;32.22;16.73;;;5.10;90.00;;;;;;5095299;28;20024;-39
2021/12/05 19:50:27;;;;;;;20.13;13.90;;;5.10;90.10;;;;;;5095802;28;20063;-38
2021/12/05 19:52:54;;;;;;;24.05;15.98;;;5.10;90.20;;;;;;5095683;28;20039;-39
2021/12/05 19:55:20;;;;;;;29.73;16.40;;;5.10;90.20;;;;;;5095481;28;20475;-40
2021/12/05 19:57:46;;;;;;;28.27;17.17;;;4.90;90.00;;;;;;5095077;28;20480;-38
2021/12/05 20:00:15;;;;;;;26.77;15.82;;;5.00;90.40;;;;;;5093834;28;20028;-39
2021/12/05 20:02:42;;;;;;;26.33;17.80;;;5.10;90.30;;;;;;5095011;28;20108;-39
2021/12/05 20:05:10;;;;;;;29.20;19.05;;;5.20;90.40;;;;;;5095075;28;20054;-39
2021/12/05 20:07:37;;;;;;;33.85;19.52;;;5.10;90.20;;;;;;5095044;28;20036;-39
2021/12/05 20:10:08;;;;;;;37.78;20.45;;;5.20;90.40;;;;;;5095161;28;20070;-38
2021/12/05 20:12:34;;;;;;;34.33;20.23;;;5.20;90.20;;;;;;5095548;28;20031;-40
2021/12/05 20:15:00;;;;;;;31.50;18.73;;;5.20;90.20;;;;;;5095584;28;20024;-39
2021/12/05 20:17:26;;;;;;;30.45;17.23;;;5.00;90.20;;;;;;5077340;28;20069;-38
2021/12/05 20:19:55;;;;;;;22.13;16.95;;;5.00;90.30;;;;;;5094850;28;20050;-39
2021/12/05 20:22:21;;;;;;;24.42;15.32;;;4.90;90.30;;;;;;5095128;28;20548;-39
2021/12/05 20:24:47;;;;;;;33.88;16.90;;;5.00;90.30;;;;;;5094865;28;20032;-39
2021/12/05 20:27:13;;;;;;;31.77;16.38;;;4.90;90.00;;;;;;5093447;28;20328;-39
2021/12/05 20:29:39;;;;;;;24.80;15.27;;;4.90;89.80;;;;;;5094735;28;20091;-41
2021/12/05 20:32:05;;;;;;;25.52;16.70;;;4.90;90.00;;;;;;5094619;28;20387;-39
2021/12/05 20:34:31;;;;;;;28.55;16.80;;;4.70;89.90;;;;;;5093167;28;20016;-41
2021/12/05 20:36:57;;;;;;;31.67;18.70;;;4.60;90.80;;;;;;5096807;28;20379;-38
2021/12/05 20:39:24;;;;;;;28.27;17.13;;;4.70;91.20;;;;;;5076501;28;20031;-39
2021/12/05 20:41:50;;;;;;;28.17;16.88;;;4.80;91.10;;;;;;5094346;28;20024;-40
2021/12/05 20:44:17;;;;;;;29.80;17.13;;;4.90;90.70;;;;;;5093076;28;20153;-40
2021/12/05 20:46:42;;;;;;;29.85;16.65;;;4.80;90.70;;;;;;5094336;28;20024;-40
2021/12/05 20:49:09;;;;;;;26.48;17.10;;;4.80;90.60;;;;;;5095134;28;20364;-39
2021/12/05 20:51:36;;;;;;;27.33;15.95;;;4.80;91.00;;;;;;5094432;28;20024;-38
2021/12/05 20:54:03;;;;;;;24.50;15.80;;;4.80;90.80;;;;;;5094576;28;20102;-39
2021/12/05 20:56:29;;;;;;;31.27;17.70;;;4.90;91.20;;;;;;5093069;28;20024;-38
2021/12/05 20:58:55;;;;;;;25.95;16.55;;;5.00;90.90;;;;;;5094736;28;20038;-38
2021/12/05 21:01:21;;;;;;;24.38;15.88;;;5.10;90.40;;;;;;5093864;28;20044;-43
2021/12/05 21:03:48;;;;;;;25.02;17.52;;;5.10;90.40;;;;;;5095003;28;20043;-38
2021/12/05 21:06:15;;;;;;;28.05;17.63;;;5.00;90.20;;;;;;5092903;28;20047;-39
2021/12/05 21:08:41;;;;;;;28.13;15.65;;;5.00;90.40;;;;;;5094184;28;20024;-38
2021/12/05 21:11:13;;;;;;;24.00;15.25;;;5.10;90.30;;;;;;5093403;28;20020;-38
2021/12/05 21:13:40;;;;;;;22.48;14.95;;;5.00;90.20;;;;;;5094408;28;20020;-38
2021/12/05 21:16:07;;;;;;;27.80;15.73;;;5.00;90.00;;;;;;5094083;28;20028;-38
2021/12/05 21:18:34;;;;;;;26.60;15.40;;;5.00;90.00;;;;;;5093547;28;20099;-41
2021/12/05 21:21:07;;;;;;;30.77;16.38;;;5.10;90.20;;;;;;5094299;28;20110;-39
2021/12/05 21:23:34;;;;;;;26.40;17.00;;;5.20;89.80;;;;;;5094225;28;20017;-39
2021/12/05 21:26:00;;;;;;;25.25;16.88;;;5.20;89.40;;;;;;5094224;28;20153;-40
2021/12/05 21:28:26;;;;;;;25.65;16.02;;;4.90;89.50;;;;;;5093759;28;20031;-39
2021/12/05 21:30:52;;;;;;;20.27;13.75;;;4.80;90.20;;;;;;5093774;28;20024;-39
2021/12/05 21:33:20;;;;;;;24.08;13.18;;;4.90;90.80;;;;;;5094087;28;20428;-49
2021/12/05 21:35:47;;;;;;;23.73;15.57;;;5.10;89.70;;;;;;5094324;28;20016;-39
2021/12/05 21:38:17;;;;;;;28.83;16.95;;;5.20;89.30;;;;;;5093549;28;20099;-38
2021/12/05 21:40:54;;;;;;;30.65;16.42;;;5.10;89.30;;;;;;5093804;28;20016;-38
2021/12/05 21:43:23;;;;;;;28.38;17.88;;;5.10;89.60;;;;;;5094424;28;20024;-39
2021/12/05 21:45:48;;;;;;;31.42;16.35;;;5.00;89.90;;;;;;5093927;28;20099;-40
2021/12/05 21:48:14;;;;;;;25.40;15.45;;;5.10;90.00;;;;;;5094442;28;20067;-38
2021/12/05 21:50:41;;;;;;;23.38;15.48;;;5.00;89.90;;;;;;5094564;28;20024;-39
2021/12/05 21:53:11;;;;;;;22.20;15.07;;;5.00;89.90;;;;;;5092742;28;20070;-39
2021/12/05 21:55:38;;;;;;;27.15;17.15;;;5.00;89.60;;;;;;5094103;28;20357;-38
2021/12/05 21:58:05;;;;;;;21.88;13.38;;;5.00;89.60;;;;;;5092949;28;20107;-39
2021/12/05 22:00:34;;;;;;;24.02;13.77;;;5.00;89.60;;;;;;5094703;28;20020;-39
2021/12/05 22:03:01;;;;;;;21.98;15.35;;;4.80;89.10;;;;;;5094501;28;20052;-42
2021/12/05 22:05:29;;;;;;;20.67;13.00;;;4.80;89.60;;;;;;5093999;28;20032;-39
2021/12/05 22:07:55;;;;;;;23.95;13.95;;;4.80;89.80;;;;;;5093676;28;20383;-38
2021/12/05 22:10:22;;;;;;;27.92;14.88;;;4.70;90.30;;;;;;5094173;28;20024;-38
2021/12/05 22:12:48;;;;;;;25.30;16.85;;;4.70;90.70;;;;;;5093740;28;20020;-40
2021/12/05 22:15:17;;;;;;;23.52;15.73;;;5.00;90.50;;;;;;5094427;28;20020;-41
2021/12/05 22:17:45;;;;;;;26.35;16.27;;;5.10;90.10;;;;;;5093975;28;20071;-40
2021/12/05 22:20:13;;;;;;;20.65;15.25;;;5.00;90.00;;;;;;5094223;28;20520;-39
2021/12/05 22:22:39;;;;;;;35.47;17.25;;;4.90;89.80;;;;;;5093629;28;20389;-38
2021/12/05 22:25:08;;;;;;;30.10;15.50;;;4.80;90.40;;;;;;5097867;28;20031;-39
2021/12/05 22:27:35;;;;;;;23.38;16.33;;;4.90;90.20;;;;;;5097282;28;20127;-39
2021/12/05 22:30:01;;;;;;;41.17;20.55;;;4.90;90.30;;;;;;5097667;28;20047;-39
2021/12/05 22:32:27;;;;;;;35.25;20.58;;;4.90;90.30;;;;;;5098049;28;20024;-39
2021/12/05 22:34:53;;;;;;;34.85;18.40;;;4.90;90.30;;;;;;5097476;28;20133;-39
2021/12/05 22:37:23;;;;;;;32.50;18.63;;;4.90;90.40;;;;;;5097566;28;20021;-40
2021/12/05 22:39:52;;;;;;;27.67;17.15;;;5.00;90.40;;;;;;5099285;28;20428;-40
2021/12/05 22:42:18;;;;;;;28.63;17.20;;;4.80;90.50;;;;;;5096326;28;20038;-39
2021/12/05 22:44:44;;;;;;;25.63;16.42;;;4.80;90.40;;;;;;5097296;28;20028;-38
2021/12/05 22:47:10;;;;;;;21.77;16.23;;;4.80;90.30;;;;;;5099145;28;20125;-39
2021/12/05 22:49:35;;;;;;;25.75;16.55;;;4.90;90.50;;;;;;5097460;28;20099;-39
2021/12/05 22:52:01;;;;;;;28.23;17.83;;;4.90;90.40;;;;;;5097825;28;20048;-39
2021/12/05 22:54:27;;;;;;;30.00;16.85;;;4.80;90.30;;;;;;5097729;28;20046;-41
2021/12/05 22:56:53;;;;;;;25.60;15.35;;;4.70;90.30;;;;;;5097318;28;20084;-40
2021/12/05 22:59:19;;;;;;;24.45;16.95;;;4.80;90.40;;;;;;5097802;28;20051;-39
